sensor_id;sensor_type;location;lat;lon;timestamp;P1;durP1;ratioP1;P2;durP2;ratioP2
37641;SDS011;23486;51.956;5.888;2023-07-29T00:01:26;5.30;;;3.13;;
37641;SDS011;23486;51.956;5.888;2023-07-29T00:03:52;5.50;;;3.70;;
37641;SDS011;23486;51.956;5.888;2023-07-29T00:06:18;6.38;;;3.50;;
37641;SDS011;23486;51.956;5.888;2023-07-29T00:08:43;6.28;;;3.75;;
37641;SDS011;23486;51.956;5.888;2023-07-29T00:11:09;5.55;;;3.55;;
37641;SDS011;23486;51.956;5.888;2023-07-29T00:13:34;5.22;;;3.55;;
37641;SDS011;23486;51.956;5.888;2023-07-29T00:16:00;8.00;;;4.55;;
37641;SDS011;23486;51.956;5.888;2023-07-29T00:18:26;17.50;;;11.40;;
37641;SDS011;23486;51.956;5.888;2023-07-29T00:20:52;23.15;;;15.63;;
37641;SDS011;23486;51.956;5.888;2023-07-29T00:23:18;16.92;;;13.10;;
37641;SDS011;23486;51.956;5.888;2023-07-29T00:25:44;14.07;;;10.90;;
37641;SDS011;23486;51.956;5.888;2023-07-29T00:28:11;9.85;;;7.88;;
37641;SDS011;23486;51.956;5.888;2023-07-29T00:30:37;10.45;;;7.38;;
37641;SDS011;23486;51.956;5.888;2023-07-29T00:33:02;11.63;;;6.75;;
37641;SDS011;23486;51.956;5.888;2023-07-29T00:35:28;8.93;;;6.53;;
37641;SDS011;23486;51.956;5.888;2023-07-29T00:37:53;7.43;;;6.20;;
37641;SDS011;23486;51.956;5.888;2023-07-29T00:40:21;7.93;;;5.57;;
37641;SDS011;23486;51.956;5.888;2023-07-29T00:42:47;7.40;;;5.43;;
37641;SDS011;23486;51.956;5.888;2023-07-29T00:45:15;8.38;;;4.90;;
37641;SDS011;23486;51.956;5.888;2023-07-29T00:47:42;8.77;;;5.43;;
37641;SDS011;23486;51.956;5.888;2023-07-29T00:50:09;6.03;;;4.88;;
37641;SDS011;23486;51.956;5.888;2023-07-29T00:52:36;8.00;;;5.53;;
37641;SDS011;23486;51.956;5.888;2023-07-29T00:55:02;6.50;;;5.03;;
37641;SDS011;23486;51.956;5.888;2023-07-29T00:57:29;6.97;;;4.43;;
37641;SDS011;23486;51.956;5.888;2023-07-29T00:59:55;6.45;;;4.78;;
37641;SDS011;23486;51.956;5.888;2023-07-29T01:02:21;8.38;;;5.05;;
37641;SDS011;23486;51.956;5.888;2023-07-29T01:04:51;8.98;;;5.30;;
37641;SDS011;23486;51.956;5.888;2023-07-29T01:07:23;7.53;;;4.75;;
37641;SDS011;23486;51.956;5.888;2023-07-29T01:10:35;8.95;;;5.15;;
37641;SDS011;23486;51.956;5.888;2023-07-29T01:13:02;8.15;;;4.68;;
37641;SDS011;23486;51.956;5.888;2023-07-29T01:15:40;6.47;;;4.03;;
37641;SDS011;23486;51.956;5.888;2023-07-29T01:21:12;6.63;;;4.80;;
37641;SDS011;23486;51.956;5.888;2023-07-29T01:23:39;6.80;;;5.05;;
37641;SDS011;23486;51.956;5.888;2023-07-29T01:26:04;6.78;;;4.10;;
37641;SDS011;23486;51.956;5.888;2023-07-29T01:28:30;9.00;;;4.65;;
37641;SDS011;23486;51.956;5.888;2023-07-29T01:31:05;7.53;;;4.82;;
37641;SDS011;23486;51.956;5.888;2023-07-29T01:33:39;7.03;;;4.80;;
37641;SDS011;23486;51.956;5.888;2023-07-29T01:36:13;9.02;;;5.10;;
37641;SDS011;23486;51.956;5.888;2023-07-29T01:38:45;8.38;;;5.32;;
37641;SDS011;23486;51.956;5.888;2023-07-29T01:41:13;8.20;;;5.63;;
37641;SDS011;23486;51.956;5.888;2023-07-29T01:43:39;7.43;;;5.40;;
37641;SDS011;23486;51.956;5.888;2023-07-29T01:46:12;8.85;;;5.25;;
37641;SDS011;23486;51.956;5.888;2023-07-29T01:48:38;7.72;;;5.88;;
37641;SDS011;23486;51.956;5.888;2023-07-29T01:51:04;7.85;;;5.40;;
37641;SDS011;23486;51.956;5.888;2023-07-29T01:53:31;7.40;;;4.57;;
37641;SDS011;23486;51.956;5.888;2023-07-29T01:55:56;8.65;;;4.85;;
37641;SDS011;23486;51.956;5.888;2023-07-29T01:58:22;6.85;;;5.60;;
37641;SDS011;23486;51.956;5.888;2023-07-29T02:00:48;6.32;;;4.60;;
37641;SDS011;23486;51.956;5.888;2023-07-29T02:03:14;7.28;;;4.88;;
37641;SDS011;23486;51.956;5.888;2023-07-29T02:05:39;6.63;;;5.18;;
37641;SDS011;23486;51.956;5.888;2023-07-29T02:08:06;7.22;;;5.00;;
37641;SDS011;23486;51.956;5.888;2023-07-29T02:10:32;7.93;;;5.88;;
37641;SDS011;23486;51.956;5.888;2023-07-29T02:12:57;9.77;;;6.35;;
37641;SDS011;23486;51.956;5.888;2023-07-29T02:15:23;9.32;;;6.03;;
37641;SDS011;23486;51.956;5.888;2023-07-29T02:17:49;9.10;;;5.63;;
37641;SDS011;23486;51.956;5.888;2023-07-29T02:20:15;7.45;;;5.18;;
37641;SDS011;23486;51.956;5.888;2023-07-29T02:22:41;9.60;;;6.07;;
37641;SDS011;23486;51.956;5.888;2023-07-29T02:25:07;7.40;;;5.63;;
37641;SDS011;23486;51.956;5.888;2023-07-29T02:27:33;11.30;;;6.25;;
37641;SDS011;23486;51.956;5.888;2023-07-29T02:29:58;9.35;;;6.95;;
37641;SDS011;23486;51.956;5.888;2023-07-29T02:32:24;10.10;;;7.38;;
37641;SDS011;23486;51.956;5.888;2023-07-29T02:34:50;9.98;;;7.90;;
37641;SDS011;23486;51.956;5.888;2023-07-29T02:37:15;10.38;;;6.85;;
37641;SDS011;23486;51.956;5.888;2023-07-29T02:39:41;9.48;;;7.03;;
37641;SDS011;23486;51.956;5.888;2023-07-29T02:42:07;9.68;;;7.22;;
37641;SDS011;23486;51.956;5.888;2023-07-29T02:44:32;8.18;;;5.63;;
37641;SDS011;23486;51.956;5.888;2023-07-29T02:46:58;9.95;;;7.63;;
37641;SDS011;23486;51.956;5.888;2023-07-29T02:49:24;10.57;;;7.80;;
37641;SDS011;23486;51.956;5.888;2023-07-29T02:51:49;10.55;;;7.10;;
37641;SDS011;23486;51.956;5.888;2023-07-29T02:54:15;11.93;;;7.53;;
37641;SDS011;23486;51.956;5.888;2023-07-29T02:56:41;9.10;;;6.18;;
37641;SDS011;23486;51.956;5.888;2023-07-29T02:59:06;10.10;;;7.35;;
37641;SDS011;23486;51.956;5.888;2023-07-29T03:01:32;8.02;;;6.00;;
37641;SDS011;23486;51.956;5.888;2023-07-29T03:03:57;9.48;;;5.68;;
37641;SDS011;23486;51.956;5.888;2023-07-29T03:06:24;7.22;;;5.57;;
37641;SDS011;23486;51.956;5.888;2023-07-29T03:08:50;9.20;;;5.68;;
37641;SDS011;23486;51.956;5.888;2023-07-29T03:11:16;8.27;;;5.40;;
37641;SDS011;23486;51.956;5.888;2023-07-29T03:13:42;6.35;;;4.40;;
37641;SDS011;23486;51.956;5.888;2023-07-29T03:16:08;5.70;;;4.15;;
37641;SDS011;23486;51.956;5.888;2023-07-29T03:18:42;6.65;;;4.15;;
37641;SDS011;23486;51.956;5.888;2023-07-29T03:21:09;5.55;;;3.55;;
37641;SDS011;23486;51.956;5.888;2023-07-29T03:23:35;8.25;;;4.32;;
37641;SDS011;23486;51.956;5.888;2023-07-29T03:26:02;5.72;;;3.30;;
37641;SDS011;23486;51.956;5.888;2023-07-29T03:28:35;6.32;;;3.15;;
37641;SDS011;23486;51.956;5.888;2023-07-29T03:31:02;5.82;;;3.47;;
37641;SDS011;23486;51.956;5.888;2023-07-29T03:33:28;5.15;;;2.42;;
37641;SDS011;23486;51.956;5.888;2023-07-29T03:35:54;6.88;;;2.85;;
37641;SDS011;23486;51.956;5.888;2023-07-29T03:38:20;6.10;;;2.72;;
37641;SDS011;23486;51.956;5.888;2023-07-29T03:40:45;5.28;;;2.72;;
37641;SDS011;23486;51.956;5.888;2023-07-29T03:43:11;4.53;;;2.40;;
37641;SDS011;23486;51.956;5.888;2023-07-29T03:45:37;4.53;;;2.47;;
37641;SDS011;23486;51.956;5.888;2023-07-29T03:48:04;4.25;;;2.10;;
37641;SDS011;23486;51.956;5.888;2023-07-29T03:50:29;5.95;;;2.72;;
37641;SDS011;23486;51.956;5.888;2023-07-29T03:52:55;3.83;;;1.92;;
37641;SDS011;23486;51.956;5.888;2023-07-29T03:55:21;3.33;;;1.52;;
37641;SDS011;23486;51.956;5.888;2023-07-29T03:57:47;4.57;;;1.77;;
37641;SDS011;23486;51.956;5.888;2023-07-29T04:00:13;4.40;;;1.88;;
37641;SDS011;23486;51.956;5.888;2023-07-29T04:02:39;4.10;;;1.90;;
37641;SDS011;23486;51.956;5.888;2023-07-29T04:05:05;4.05;;;2.03;;
37641;SDS011;23486;51.956;5.888;2023-07-29T04:07:33;3.00;;;1.23;;
37641;SDS011;23486;51.956;5.888;2023-07-29T04:10:02;4.72;;;1.80;;
37641;SDS011;23486;51.956;5.888;2023-07-29T04:12:28;6.00;;;1.83;;
37641;SDS011;23486;51.956;5.888;2023-07-29T04:14:55;3.65;;;1.58;;
37641;SDS011;23486;51.956;5.888;2023-07-29T04:17:21;3.88;;;1.80;;
37641;SDS011;23486;51.956;5.888;2023-07-29T04:19:46;3.58;;;1.35;;
37641;SDS011;23486;51.956;5.888;2023-07-29T04:22:12;2.80;;;1.20;;
37641;SDS011;23486;51.956;5.888;2023-07-29T04:24:38;3.13;;;1.23;;
37641;SDS011;23486;51.956;5.888;2023-07-29T04:27:05;3.20;;;0.95;;
37641;SDS011;23486;51.956;5.888;2023-07-29T04:29:32;4.18;;;1.02;;
37641;SDS011;23486;51.956;5.888;2023-07-29T04:31:58;5.07;;;1.30;;
37641;SDS011;23486;51.956;5.888;2023-07-29T04:34:23;4.15;;;0.90;;
37641;SDS011;23486;51.956;5.888;2023-07-29T04:36:49;2.63;;;1.08;;
37641;SDS011;23486;51.956;5.888;2023-07-29T04:39:14;2.50;;;0.80;;
37641;SDS011;23486;51.956;5.888;2023-07-29T04:41:40;2.83;;;1.05;;
37641;SDS011;23486;51.956;5.888;2023-07-29T04:44:06;3.33;;;0.75;;
37641;SDS011;23486;51.956;5.888;2023-07-29T04:46:32;2.63;;;0.70;;
37641;SDS011;23486;51.956;5.888;2023-07-29T04:48:58;3.83;;;0.88;;
37641;SDS011;23486;51.956;5.888;2023-07-29T04:51:23;2.78;;;0.93;;
37641;SDS011;23486;51.956;5.888;2023-07-29T04:53:49;2.22;;;0.60;;
37641;SDS011;23486;51.956;5.888;2023-07-29T04:56:15;2.95;;;0.88;;
37641;SDS011;23486;51.956;5.888;2023-07-29T04:58:41;2.17;;;0.80;;
37641;SDS011;23486;51.956;5.888;2023-07-29T05:01:06;1.80;;;0.52;;
37641;SDS011;23486;51.956;5.888;2023-07-29T05:03:32;2.95;;;0.90;;
37641;SDS011;23486;51.956;5.888;2023-07-29T05:05:58;2.35;;;0.63;;
37641;SDS011;23486;51.956;5.888;2023-07-29T05:08:25;5.40;;;0.95;;
37641;SDS011;23486;51.956;5.888;2023-07-29T05:10:53;3.35;;;0.80;;
37641;SDS011;23486;51.956;5.888;2023-07-29T05:13:19;3.55;;;0.80;;
37641;SDS011;23486;51.956;5.888;2023-07-29T05:15:46;4.03;;;0.75;;
37641;SDS011;23486;51.956;5.888;2023-07-29T05:18:13;2.05;;;0.70;;
37641;SDS011;23486;51.956;5.888;2023-07-29T05:20:38;3.55;;;0.50;;
37641;SDS011;23486;51.956;5.888;2023-07-29T05:23:04;3.63;;;0.70;;
37641;SDS011;23486;51.956;5.888;2023-07-29T05:25:30;2.78;;;0.70;;
37641;SDS011;23486;51.956;5.888;2023-07-29T05:27:55;2.22;;;0.70;;
37641;SDS011;23486;51.956;5.888;2023-07-29T05:30:22;2.70;;;0.73;;
37641;SDS011;23486;51.956;5.888;2023-07-29T05:32:48;2.50;;;0.70;;
37641;SDS011;23486;51.956;5.888;2023-07-29T05:35:13;3.33;;;0.93;;
37641;SDS011;23486;51.956;5.888;2023-07-29T05:37:39;2.20;;;0.75;;
37641;SDS011;23486;51.956;5.888;2023-07-29T05:40:06;2.22;;;0.80;;
37641;SDS011;23486;51.956;5.888;2023-07-29T05:42:33;2.83;;;0.82;;
37641;SDS011;23486;51.956;5.888;2023-07-29T05:44:59;2.83;;;0.80;;
37641;SDS011;23486;51.956;5.888;2023-07-29T05:47:25;4.65;;;1.35;;
37641;SDS011;23486;51.956;5.888;2023-07-29T05:49:51;2.90;;;0.95;;
37641;SDS011;23486;51.956;5.888;2023-07-29T05:52:17;4.68;;;1.60;;
37641;SDS011;23486;51.956;5.888;2023-07-29T05:54:43;3.47;;;1.40;;
37641;SDS011;23486;51.956;5.888;2023-07-29T05:57:09;3.80;;;1.17;;
37641;SDS011;23486;51.956;5.888;2023-07-29T05:59:36;4.55;;;1.50;;
37641;SDS011;23486;51.956;5.888;2023-07-29T06:02:01;3.42;;;1.30;;
37641;SDS011;23486;51.956;5.888;2023-07-29T06:04:27;3.47;;;1.45;;
37641;SDS011;23486;51.956;5.888;2023-07-29T06:06:53;3.08;;;1.55;;
37641;SDS011;23486;51.956;5.888;2023-07-29T06:09:20;3.92;;;1.92;;
37641;SDS011;23486;51.956;5.888;2023-07-29T06:11:46;4.45;;;1.50;;
37641;SDS011;23486;51.956;5.888;2023-07-29T06:14:12;4.05;;;1.48;;
37641;SDS011;23486;51.956;5.888;2023-07-29T06:16:38;5.65;;;1.83;;
37641;SDS011;23486;51.956;5.888;2023-07-29T06:19:03;3.83;;;1.52;;
37641;SDS011;23486;51.956;5.888;2023-07-29T06:21:29;5.38;;;2.00;;
37641;SDS011;23486;51.956;5.888;2023-07-29T06:23:55;3.97;;;1.90;;
37641;SDS011;23486;51.956;5.888;2023-07-29T06:26:20;3.80;;;1.23;;
37641;SDS011;23486;51.956;5.888;2023-07-29T06:28:46;4.10;;;1.63;;
37641;SDS011;23486;51.956;5.888;2023-07-29T06:31:12;3.30;;;1.77;;
37641;SDS011;23486;51.956;5.888;2023-07-29T06:33:37;4.15;;;1.73;;
37641;SDS011;23486;51.956;5.888;2023-07-29T06:36:03;5.00;;;2.00;;
37641;SDS011;23486;51.956;5.888;2023-07-29T06:38:29;6.13;;;1.90;;
37641;SDS011;23486;51.956;5.888;2023-07-29T06:40:54;4.70;;;2.03;;
37641;SDS011;23486;51.956;5.888;2023-07-29T06:43:20;3.85;;;1.80;;
37641;SDS011;23486;51.956;5.888;2023-07-29T06:45:46;6.70;;;2.10;;
37641;SDS011;23486;51.956;5.888;2023-07-29T06:48:12;5.65;;;1.75;;
37641;SDS011;23486;51.956;5.888;2023-07-29T06:50:37;3.83;;;1.90;;
37641;SDS011;23486;51.956;5.888;2023-07-29T06:53:03;4.07;;;1.85;;
37641;SDS011;23486;51.956;5.888;2023-07-29T06:55:29;6.18;;;2.15;;
37641;SDS011;23486;51.956;5.888;2023-07-29T06:57:54;4.28;;;2.22;;
37641;SDS011;23486;51.956;5.888;2023-07-29T07:00:20;5.20;;;2.10;;
37641;SDS011;23486;51.956;5.888;2023-07-29T07:02:46;6.78;;;1.88;;
37641;SDS011;23486;51.956;5.888;2023-07-29T07:05:11;7.22;;;2.70;;
37641;SDS011;23486;51.956;5.888;2023-07-29T07:07:37;5.10;;;1.83;;
37641;SDS011;23486;51.956;5.888;2023-07-29T07:10:03;5.55;;;2.45;;
37641;SDS011;23486;51.956;5.888;2023-07-29T07:12:29;4.05;;;1.95;;
37641;SDS011;23486;51.956;5.888;2023-07-29T07:14:55;6.50;;;2.78;;
37641;SDS011;23486;51.956;5.888;2023-07-29T07:17:20;4.78;;;2.95;;
37641;SDS011;23486;51.956;5.888;2023-07-29T07:19:46;4.15;;;2.35;;
37641;SDS011;23486;51.956;5.888;2023-07-29T07:22:12;7.90;;;3.53;;
37641;SDS011;23486;51.956;5.888;2023-07-29T07:24:37;4.75;;;2.50;;
37641;SDS011;23486;51.956;5.888;2023-07-29T07:27:03;4.97;;;3.10;;
37641;SDS011;23486;51.956;5.888;2023-07-29T07:29:29;5.32;;;3.38;;
37641;SDS011;23486;51.956;5.888;2023-07-29T07:31:56;5.18;;;2.80;;
37641;SDS011;23486;51.956;5.888;2023-07-29T07:34:21;5.93;;;3.28;;
37641;SDS011;23486;51.956;5.888;2023-07-29T07:36:48;7.00;;;3.72;;
37641;SDS011;23486;51.956;5.888;2023-07-29T07:39:14;5.88;;;4.03;;
37641;SDS011;23486;51.956;5.888;2023-07-29T07:41:40;7.82;;;3.05;;
37641;SDS011;23486;51.956;5.888;2023-07-29T07:44:06;4.45;;;2.63;;
37641;SDS011;23486;51.956;5.888;2023-07-29T07:46:31;4.85;;;3.00;;
37641;SDS011;23486;51.956;5.888;2023-07-29T07:48:57;5.25;;;3.30;;
37641;SDS011;23486;51.956;5.888;2023-07-29T07:51:23;5.25;;;3.10;;
37641;SDS011;23486;51.956;5.888;2023-07-29T07:53:48;3.65;;;2.35;;
37641;SDS011;23486;51.956;5.888;2023-07-29T07:56:14;3.22;;;2.10;;
37641;SDS011;23486;51.956;5.888;2023-07-29T07:58:40;4.10;;;2.90;;
37641;SDS011;23486;51.956;5.888;2023-07-29T08:01:06;7.20;;;2.88;;
37641;SDS011;23486;51.956;5.888;2023-07-29T08:03:33;2.88;;;1.50;;
37641;SDS011;23486;51.956;5.888;2023-07-29T08:05:59;5.25;;;3.25;;
37641;SDS011;23486;51.956;5.888;2023-07-29T08:08:25;3.13;;;2.20;;
37641;SDS011;23486;51.956;5.888;2023-07-29T08:10:54;3.97;;;1.70;;
37641;SDS011;23486;51.956;5.888;2023-07-29T08:13:22;3.78;;;2.42;;
37641;SDS011;23486;51.956;5.888;2023-07-29T08:15:49;3.42;;;2.50;;
37641;SDS011;23486;51.956;5.888;2023-07-29T08:18:16;4.03;;;2.45;;
37641;SDS011;23486;51.956;5.888;2023-07-29T08:20:58;3.15;;;1.77;;
37641;SDS011;23486;51.956;5.888;2023-07-29T08:23:30;3.85;;;2.35;;
37641;SDS011;23486;51.956;5.888;2023-07-29T08:25:57;5.35;;;1.60;;
37641;SDS011;23486;51.956;5.888;2023-07-29T08:28:36;4.10;;;1.73;;
37641;SDS011;23486;51.956;5.888;2023-07-29T08:31:03;3.58;;;1.23;;
37641;SDS011;23486;51.956;5.888;2023-07-29T08:33:29;2.63;;;0.90;;
37641;SDS011;23486;51.956;5.888;2023-07-29T08:35:55;2.17;;;1.00;;
37641;SDS011;23486;51.956;5.888;2023-07-29T08:38:21;2.85;;;1.02;;
37641;SDS011;23486;51.956;5.888;2023-07-29T08:41:03;2.60;;;0.77;;
37641;SDS011;23486;51.956;5.888;2023-07-29T08:43:50;2.80;;;0.80;;
37641;SDS011;23486;51.956;5.888;2023-07-29T08:46:33;2.90;;;1.23;;
37641;SDS011;23486;51.956;5.888;2023-07-29T08:48:59;2.67;;;1.17;;
37641;SDS011;23486;51.956;5.888;2023-07-29T08:51:26;3.15;;;0.90;;
37641;SDS011;23486;51.956;5.888;2023-07-29T08:53:52;2.60;;;0.80;;
37641;SDS011;23486;51.956;5.888;2023-07-29T08:56:18;1.60;;;0.60;;
37641;SDS011;23486;51.956;5.888;2023-07-29T08:58:45;3.10;;;0.95;;
37641;SDS011;23486;51.956;5.888;2023-07-29T09:01:11;3.30;;;0.70;;
37641;SDS011;23486;51.956;5.888;2023-07-29T09:03:37;2.50;;;0.80;;
37641;SDS011;23486;51.956;5.888;2023-07-29T09:06:03;2.22;;;0.63;;
37641;SDS011;23486;51.956;5.888;2023-07-29T09:08:29;2.92;;;0.95;;
37641;SDS011;23486;51.956;5.888;2023-07-29T09:10:55;2.90;;;0.80;;
37641;SDS011;23486;51.956;5.888;2023-07-29T09:13:22;2.80;;;0.70;;
37641;SDS011;23486;51.956;5.888;2023-07-29T09:15:48;3.17;;;0.70;;
37641;SDS011;23486;51.956;5.888;2023-07-29T09:18:17;3.38;;;0.80;;
37641;SDS011;23486;51.956;5.888;2023-07-29T09:20:47;1.33;;;0.65;;
37641;SDS011;23486;51.956;5.888;2023-07-29T09:23:15;2.20;;;0.70;;
37641;SDS011;23486;51.956;5.888;2023-07-29T09:25:40;3.83;;;0.52;;
37641;SDS011;23486;51.956;5.888;2023-07-29T09:28:10;1.38;;;0.52;;
37641;SDS011;23486;51.956;5.888;2023-07-29T09:30:38;3.58;;;0.70;;
37641;SDS011;23486;51.956;5.888;2023-07-29T09:33:04;1.40;;;0.40;;
37641;SDS011;23486;51.956;5.888;2023-07-29T09:35:32;1.00;;;0.40;;
37641;SDS011;23486;51.956;5.888;2023-07-29T09:37:59;2.10;;;0.50;;
37641;SDS011;23486;51.956;5.888;2023-07-29T09:40:24;1.73;;;0.60;;
37641;SDS011;23486;51.956;5.888;2023-07-29T09:42:54;2.47;;;0.50;;
37641;SDS011;23486;51.956;5.888;2023-07-29T09:45:24;2.25;;;0.50;;
37641;SDS011;23486;51.956;5.888;2023-07-29T09:47:51;3.63;;;0.47;;
37641;SDS011;23486;51.956;5.888;2023-07-29T09:50:18;3.58;;;0.50;;
37641;SDS011;23486;51.956;5.888;2023-07-29T09:52:44;2.13;;;0.57;;
37641;SDS011;23486;51.956;5.888;2023-07-29T09:55:13;2.20;;;0.50;;
37641;SDS011;23486;51.956;5.888;2023-07-29T10:00:10;2.33;;;0.50;;
37641;SDS011;23486;51.956;5.888;2023-07-29T10:02:37;1.98;;;0.63;;
37641;SDS011;23486;51.956;5.888;2023-07-29T10:05:08;2.03;;;0.50;;
37641;SDS011;23486;51.956;5.888;2023-07-29T10:07:37;2.45;;;0.50;;
37641;SDS011;23486;51.956;5.888;2023-07-29T10:10:04;1.65;;;0.50;;
37641;SDS011;23486;51.956;5.888;2023-07-29T10:12:31;2.15;;;0.40;;
37641;SDS011;23486;51.956;5.888;2023-07-29T10:15:07;1.85;;;0.40;;
37641;SDS011;23486;51.956;5.888;2023-07-29T10:17:37;1.80;;;0.50;;
37641;SDS011;23486;51.956;5.888;2023-07-29T10:20:04;2.75;;;0.40;;
37641;SDS011;23486;51.956;5.888;2023-07-29T10:22:50;1.73;;;0.40;;
37641;SDS011;23486;51.956;5.888;2023-07-29T10:25:23;1.73;;;0.55;;
37641;SDS011;23486;51.956;5.888;2023-07-29T10:27:56;1.85;;;0.40;;
37641;SDS011;23486;51.956;5.888;2023-07-29T10:30:32;1.73;;;0.43;;
37641;SDS011;23486;51.956;5.888;2023-07-29T10:32:59;1.42;;;0.40;;
37641;SDS011;23486;51.956;5.888;2023-07-29T10:35:28;1.45;;;0.50;;
37641;SDS011;23486;51.956;5.888;2023-07-29T10:37:54;2.17;;;0.50;;
37641;SDS011;23486;51.956;5.888;2023-07-29T10:40:20;2.33;;;0.57;;
37641;SDS011;23486;51.956;5.888;2023-07-29T10:43:02;2.05;;;0.80;;
37641;SDS011;23486;51.956;5.888;2023-07-29T10:45:40;1.42;;;0.50;;
37641;SDS011;23486;51.956;5.888;2023-07-29T10:48:13;1.98;;;0.70;;
37641;SDS011;23486;51.956;5.888;2023-07-29T10:54:00;1.75;;;0.60;;
37641;SDS011;23486;51.956;5.888;2023-07-29T10:56:28;2.20;;;0.60;;
37641;SDS011;23486;51.956;5.888;2023-07-29T10:58:56;2.33;;;0.75;;
37641;SDS011;23486;51.956;5.888;2023-07-29T11:01:27;2.30;;;0.60;;
37641;SDS011;23486;51.956;5.888;2023-07-29T11:04:01;1.63;;;0.50;;
37641;SDS011;23486;51.956;5.888;2023-07-29T11:09:41;2.35;;;0.60;;
37641;SDS011;23486;51.956;5.888;2023-07-29T11:15:02;1.85;;;0.50;;
37641;SDS011;23486;51.956;5.888;2023-07-29T11:17:29;1.83;;;0.43;;
37641;SDS011;23486;51.956;5.888;2023-07-29T11:20:02;0.85;;;0.40;;
37641;SDS011;23486;51.956;5.888;2023-07-29T11:22:29;1.20;;;0.40;;
37641;SDS011;23486;51.956;5.888;2023-07-29T11:24:55;2.72;;;0.40;;
37641;SDS011;23486;51.956;5.888;2023-07-29T11:27:20;1.65;;;0.50;;
37641;SDS011;23486;51.956;5.888;2023-07-29T11:29:46;1.80;;;0.40;;
37641;SDS011;23486;51.956;5.888;2023-07-29T11:32:12;1.25;;;0.40;;
37641;SDS011;23486;51.956;5.888;2023-07-29T11:34:38;1.00;;;0.40;;
37641;SDS011;23486;51.956;5.888;2023-07-29T11:37:08;2.15;;;0.40;;
37641;SDS011;23486;51.956;5.888;2023-07-29T11:39:40;1.40;;;0.40;;
37641;SDS011;23486;51.956;5.888;2023-07-29T11:42:13;1.75;;;0.32;;
37641;SDS011;23486;51.956;5.888;2023-07-29T11:44:41;1.50;;;0.50;;
37641;SDS011;23486;51.956;5.888;2023-07-29T11:47:08;2.40;;;0.90;;
37641;SDS011;23486;51.956;5.888;2023-07-29T11:49:35;1.92;;;0.50;;
37641;SDS011;23486;51.956;5.888;2023-07-29T11:52:01;1.30;;;0.40;;
37641;SDS011;23486;51.956;5.888;2023-07-29T11:54:27;3.58;;;0.80;;
37641;SDS011;23486;51.956;5.888;2023-07-29T11:56:53;2.63;;;0.63;;
37641;SDS011;23486;51.956;5.888;2023-07-29T11:59:20;1.40;;;0.50;;
37641;SDS011;23486;51.956;5.888;2023-07-29T12:01:46;1.88;;;0.60;;
37641;SDS011;23486;51.956;5.888;2023-07-29T12:04:12;1.15;;;0.40;;
37641;SDS011;23486;51.956;5.888;2023-07-29T12:06:38;2.17;;;0.40;;
37641;SDS011;23486;51.956;5.888;2023-07-29T12:09:04;1.15;;;0.40;;
37641;SDS011;23486;51.956;5.888;2023-07-29T12:11:30;2.22;;;0.40;;
37641;SDS011;23486;51.956;5.888;2023-07-29T12:13:57;1.20;;;0.40;;
37641;SDS011;23486;51.956;5.888;2023-07-29T12:16:24;3.40;;;0.40;;
37641;SDS011;23486;51.956;5.888;2023-07-29T12:18:50;1.50;;;0.40;;
37641;SDS011;23486;51.956;5.888;2023-07-29T12:21:16;1.33;;;0.35;;
37641;SDS011;23486;51.956;5.888;2023-07-29T12:23:43;1.92;;;0.50;;
37641;SDS011;23486;51.956;5.888;2023-07-29T12:26:09;1.95;;;0.50;;
37641;SDS011;23486;51.956;5.888;2023-07-29T12:28:35;2.33;;;0.40;;
37641;SDS011;23486;51.956;5.888;2023-07-29T12:31:00;1.10;;;0.40;;
37641;SDS011;23486;51.956;5.888;2023-07-29T12:33:33;2.70;;;0.30;;
37641;SDS011;23486;51.956;5.888;2023-07-29T12:36:00;2.40;;;0.50;;
37641;SDS011;23486;51.956;5.888;2023-07-29T12:38:26;1.90;;;0.30;;
37641;SDS011;23486;51.956;5.888;2023-07-29T12:40:52;1.52;;;0.40;;
37641;SDS011;23486;51.956;5.888;2023-07-29T12:43:18;2.50;;;0.52;;
37641;SDS011;23486;51.956;5.888;2023-07-29T12:45:44;2.40;;;0.50;;
37641;SDS011;23486;51.956;5.888;2023-07-29T12:48:09;1.13;;;0.25;;
37641;SDS011;23486;51.956;5.888;2023-07-29T12:50:36;1.83;;;0.40;;
37641;SDS011;23486;51.956;5.888;2023-07-29T12:53:04;1.48;;;0.43;;
37641;SDS011;23486;51.956;5.888;2023-07-29T12:55:30;1.02;;;0.40;;
37641;SDS011;23486;51.956;5.888;2023-07-29T12:57:55;1.40;;;0.40;;
37641;SDS011;23486;51.956;5.888;2023-07-29T13:00:23;2.55;;;0.50;;
37641;SDS011;23486;51.956;5.888;2023-07-29T13:02:48;1.65;;;0.50;;
37641;SDS011;23486;51.956;5.888;2023-07-29T13:05:14;1.75;;;0.50;;
37641;SDS011;23486;51.956;5.888;2023-07-29T13:07:40;1.45;;;0.55;;
37641;SDS011;23486;51.956;5.888;2023-07-29T13:10:08;2.03;;;0.60;;
37641;SDS011;23486;51.956;5.888;2023-07-29T13:12:34;1.52;;;0.55;;
37641;SDS011;23486;51.956;5.888;2023-07-29T13:15:00;5.85;;;0.90;;
37641;SDS011;23486;51.956;5.888;2023-07-29T13:17:26;2.45;;;0.93;;
37641;SDS011;23486;51.956;5.888;2023-07-29T13:19:51;2.03;;;0.77;;
37641;SDS011;23486;51.956;5.888;2023-07-29T13:22:17;2.42;;;0.85;;
37641;SDS011;23486;51.956;5.888;2023-07-29T13:24:44;1.60;;;0.70;;
37641;SDS011;23486;51.956;5.888;2023-07-29T13:27:10;1.90;;;0.85;;
37641;SDS011;23486;51.956;5.888;2023-07-29T13:29:36;2.40;;;1.00;;
37641;SDS011;23486;51.956;5.888;2023-07-29T13:32:01;1.77;;;0.90;;
37641;SDS011;23486;51.956;5.888;2023-07-29T13:34:27;2.05;;;0.77;;
37641;SDS011;23486;51.956;5.888;2023-07-29T13:36:53;1.70;;;0.88;;
37641;SDS011;23486;51.956;5.888;2023-07-29T13:39:18;1.90;;;0.80;;
37641;SDS011;23486;51.956;5.888;2023-07-29T13:41:44;2.95;;;0.70;;
37641;SDS011;23486;51.956;5.888;2023-07-29T13:44:10;1.98;;;0.90;;
37641;SDS011;23486;51.956;5.888;2023-07-29T13:46:35;2.38;;;0.90;;
37641;SDS011;23486;51.956;5.888;2023-07-29T13:49:01;2.17;;;1.02;;
37641;SDS011;23486;51.956;5.888;2023-07-29T13:51:28;2.15;;;1.02;;
37641;SDS011;23486;51.956;5.888;2023-07-29T13:53:53;1.77;;;0.70;;
37641;SDS011;23486;51.956;5.888;2023-07-29T13:56:21;3.85;;;0.80;;
37641;SDS011;23486;51.956;5.888;2023-07-29T13:58:46;1.60;;;0.52;;
37641;SDS011;23486;51.956;5.888;2023-07-29T14:01:12;2.28;;;0.52;;
37641;SDS011;23486;51.956;5.888;2023-07-29T14:03:38;1.73;;;0.60;;
37641;SDS011;23486;51.956;5.888;2023-07-29T14:06:03;2.35;;;0.57;;
37641;SDS011;23486;51.956;5.888;2023-07-29T14:08:29;1.25;;;0.50;;
37641;SDS011;23486;51.956;5.888;2023-07-29T14:10:55;2.15;;;0.65;;
37641;SDS011;23486;51.956;5.888;2023-07-29T14:13:20;1.30;;;0.60;;
37641;SDS011;23486;51.956;5.888;2023-07-29T14:15:46;1.65;;;0.60;;
37641;SDS011;23486;51.956;5.888;2023-07-29T14:18:12;1.55;;;0.50;;
37641;SDS011;23486;51.956;5.888;2023-07-29T14:20:37;2.28;;;0.65;;
37641;SDS011;23486;51.956;5.888;2023-07-29T14:23:03;2.22;;;0.57;;
37641;SDS011;23486;51.956;5.888;2023-07-29T14:25:29;1.38;;;0.40;;
37641;SDS011;23486;51.956;5.888;2023-07-29T14:27:54;1.60;;;0.60;;
37641;SDS011;23486;51.956;5.888;2023-07-29T14:30:20;1.30;;;0.40;;
37641;SDS011;23486;51.956;5.888;2023-07-29T14:32:46;1.17;;;0.50;;
37641;SDS011;23486;51.956;5.888;2023-07-29T14:35:11;1.60;;;0.50;;
37641;SDS011;23486;51.956;5.888;2023-07-29T14:37:37;0.98;;;0.40;;
37641;SDS011;23486;51.956;5.888;2023-07-29T14:40:03;1.42;;;0.40;;
37641;SDS011;23486;51.956;5.888;2023-07-29T14:42:30;1.45;;;0.40;;
37641;SDS011;23486;51.956;5.888;2023-07-29T14:44:55;1.88;;;0.57;;
37641;SDS011;23486;51.956;5.888;2023-07-29T14:47:21;1.38;;;0.47;;
37641;SDS011;23486;51.956;5.888;2023-07-29T14:49:47;1.67;;;0.50;;
37641;SDS011;23486;51.956;5.888;2023-07-29T14:52:12;1.58;;;0.50;;
37641;SDS011;23486;51.956;5.888;2023-07-29T14:54:38;1.48;;;0.50;;
37641;SDS011;23486;51.956;5.888;2023-07-29T14:57:05;1.50;;;0.45;;
37641;SDS011;23486;51.956;5.888;2023-07-29T14:59:31;1.35;;;0.40;;
37641;SDS011;23486;51.956;5.888;2023-07-29T15:01:57;3.92;;;0.50;;